createdAt,value
2023-05-18T07:24:23.065Z,101113.01
2023-05-18T07:26:51.965Z,101111.92
2023-05-18T07:29:21.048Z,101115.36
2023-05-18T07:31:50.093Z,101115.29
2023-05-18T07:34:19.075Z,101117.86
2023-05-18T07:36:48.133Z,101111.83
2023-05-18T07:39:19.808Z,101116.66
2023-05-18T07:41:49.925Z,101113.23
2023-05-18T07:44:18.916Z,101111.68
2023-05-18T07:46:48.171Z,101112.34
2023-05-18T07:49:17.406Z,101112.44
2023-05-18T07:51:46.603Z,101112.35
2023-05-18T07:54:16.356Z,101112.67
2023-05-18T07:56:45.504Z,101117.75
2023-05-18T07:59:14.493Z,101122.05
2023-05-18T08:01:45.210Z,101120.48
2023-05-18T08:04:14.555Z,101112.88
2023-05-18T08:06:43.728Z,101111.74
2023-05-18T08:09:13.124Z,101108.23
2023-05-18T08:11:45.264Z,101112.98
2023-05-18T08:14:14.659Z,101110.59
2023-05-18T08:16:43.726Z,101112.81
2023-05-18T08:19:12.584Z,101112.02
2023-05-18T08:21:41.346Z,101104.94
2023-05-18T08:24:10.512Z,101111.08
2023-05-18T08:26:39.268Z,101106.88
2023-05-18T08:29:10.587Z,101107.50
2023-05-18T08:31:41.755Z,101102.27
2023-05-18T08:34:10.587Z,101104.95
2023-05-18T08:36:39.715Z,101100.95
2023-05-18T08:39:09.617Z,101104.72
2023-05-18T08:42:01.394Z,101101.68
2023-05-18T08:45:12.003Z,101101.48
2023-05-18T08:47:41.729Z,101091.79
2023-05-18T08:50:13.921Z,101096.46
2023-05-18T08:52:48.340Z,101097.76
2023-05-18T08:55:18.876Z,101095.16
2023-05-18T08:57:56.562Z,101092.58
2023-05-18T09:00:26.008Z,101089.62
2023-05-18T09:02:56.140Z,101089.89
2023-05-18T09:05:25.022Z,101092.38
2023-05-18T09:07:55.473Z,101093.48
2023-05-18T09:10:24.681Z,101091.14
2023-05-18T09:12:55.261Z,101088.11
2023-05-18T09:15:25.587Z,101087.88
2023-05-18T09:17:54.524Z,101095.47
2023-05-18T09:20:26.524Z,101093.04
2023-05-18T09:22:55.300Z,101092.52
2023-05-18T09:25:25.468Z,101094.90
2023-05-18T09:27:55.864Z,101088.05
2023-05-18T09:30:25.624Z,101091.12
2023-05-18T09:32:54.767Z,101090.19
2023-05-18T09:35:25.730Z,101091.55
2023-05-18T09:37:54.882Z,101091.94
2023-05-18T09:40:30.242Z,101089.32
2023-05-18T09:42:59.489Z,101087.87
2023-05-18T09:45:28.969Z,101087.89
2023-05-18T09:47:58.245Z,101087.13
2023-05-18T09:50:27.751Z,101082.79
2023-05-18T09:52:57.984Z,101082.44
2023-05-18T09:55:26.889Z,101081.98
2023-05-18T09:57:56.902Z,101081.00
2023-05-18T10:00:27.106Z,101078.04
2023-05-18T10:02:56.837Z,101073.64
2023-05-18T10:05:28.075Z,101076.51
2023-05-18T10:07:58.256Z,101074.11
2023-05-18T10:10:32.331Z,101073.80
2023-05-18T10:13:02.061Z,101069.25
2023-05-18T10:15:31.076Z,101069.89
2023-05-18T10:18:03.703Z,101072.17
2023-05-18T10:20:33.056Z,101070.80
2023-05-18T10:23:05.746Z,101070.48
2023-05-18T10:25:36.365Z,101063.86
2023-05-18T10:28:10.472Z,101068.52
2023-05-18T10:30:44.018Z,101065.75
2023-05-18T10:33:24.713Z,101056.37
2023-05-18T10:35:58.693Z,101059.12
2023-05-18T10:38:29.143Z,101062.77
2023-05-18T10:41:00.556Z,101065.00
2023-05-18T10:43:29.457Z,101061.84
2023-05-18T10:46:02.768Z,101060.20
2023-05-18T10:48:31.832Z,101056.46
2023-05-18T10:51:01.153Z,101055.79
2023-05-18T10:53:30.137Z,101055.32
2023-05-18T10:55:58.895Z,101056.34
2023-05-18T10:58:30.980Z,101057.83
2023-05-18T11:01:01.502Z,101053.18
2023-05-18T11:03:33.389Z,101052.65
2023-05-18T11:06:15.102Z,101046.41
2023-05-18T11:08:51.173Z,101045.49
2023-05-18T11:11:26.000Z,101048.16
2023-05-18T11:13:54.917Z,101044.20
2023-05-18T11:16:34.914Z,101045.27
2023-05-18T11:19:09.572Z,101050.57
2023-05-18T11:21:41.603Z,101049.45
2023-05-18T11:24:32.482Z,101044.23
2023-05-18T11:27:12.419Z,101045.63
2023-05-18T11:30:03.752Z,101043.47
2023-05-18T11:32:37.321Z,101037.95
2023-05-18T11:35:11.521Z,101034.64
2023-05-18T11:37:41.499Z,101033.62
2023-05-18T11:40:47.348Z,101032.43
2023-05-18T11:43:25.151Z,101031.55
2023-05-18T11:45:59.741Z,101027.11
2023-05-18T11:48:31.954Z,101020.11
2023-05-18T11:51:01.464Z,101029.22
2023-05-18T11:53:30.677Z,101031.34
2023-05-18T11:56:00.276Z,101028.69
2023-05-18T11:58:32.119Z,101029.64
2023-05-18T12:01:03.318Z,101030.16
2023-05-18T12:03:33.354Z,101029.93
2023-05-18T12:06:02.516Z,101024.20
2023-05-18T12:08:31.659Z,101026.96
2023-05-18T12:11:02.587Z,101034.59
2023-05-18T12:13:32.048Z,101036.61
2023-05-18T12:16:01.992Z,101030.57
2023-05-18T12:18:35.414Z,101029.98
2023-05-18T12:21:05.694Z,101027.72
2023-05-18T12:23:38.593Z,101027.14
2023-05-18T12:26:07.835Z,101031.59
2023-05-18T12:28:36.922Z,101027.48
2023-05-18T12:31:08.859Z,101027.61
2023-05-18T12:33:38.259Z,101021.66
2023-05-18T12:36:11.826Z,101023.27
2023-05-18T12:38:41.510Z,101025.48
2023-05-18T12:41:10.400Z,101018.14
2023-05-18T12:43:39.342Z,101020.21
2023-05-18T12:46:08.364Z,101020.95
2023-05-18T12:48:45.534Z,101018.17
2023-05-18T12:51:20.813Z,101021.27
2023-05-18T12:53:50.916Z,101013.33
2023-05-18T12:56:21.307Z,101011.16
2023-05-18T12:59:04.936Z,101010.28
2023-05-18T13:01:44.262Z,101010.71
2023-05-18T13:04:13.821Z,101014.80
2023-05-18T13:06:43.432Z,101019.77
2023-05-18T13:09:14.009Z,101018.48
2023-05-18T13:12:03.634Z,101016.60
2023-05-18T13:14:38.792Z,101016.05
2023-05-18T13:17:08.069Z,101014.88
2023-05-18T13:19:37.043Z,101013.95
2023-05-18T13:22:05.982Z,101014.69
2023-05-18T13:24:34.901Z,101013.50
2023-05-18T13:27:04.929Z,101009.03
2023-05-18T13:29:34.696Z,101006.88
2023-05-18T13:32:03.865Z,101002.65
2023-05-18T13:34:32.809Z,101002.93
2023-05-18T13:37:01.760Z,101000.37
2023-05-18T13:39:30.532Z,101002.11
2023-05-18T13:41:59.857Z,100998.73
2023-05-18T13:44:28.666Z,101000.07
2023-05-18T13:46:57.513Z,100997.02
2023-05-18T13:49:26.411Z,101000.96
2023-05-18T13:51:55.403Z,101002.40
2023-05-18T13:54:24.187Z,101002.89
2023-05-18T13:56:53.125Z,101006.02
2023-05-18T13:59:22.753Z,101006.88
2023-05-18T14:01:52.419Z,101006.02
2023-05-18T14:04:21.697Z,101010.80
2023-05-18T14:06:54.422Z,100999.77
2023-05-18T14:09:23.461Z,101004.95
2023-05-18T14:11:53.811Z,100999.27
2023-05-18T14:14:23.719Z,101001.61
2023-05-18T14:16:52.797Z,101001.91
2023-05-18T14:19:21.681Z,100998.06
2023-05-18T14:21:50.626Z,101001.70
2023-05-18T14:24:19.999Z,101003.16
2023-05-18T14:26:48.796Z,101001.52
2023-05-18T14:29:17.527Z,101005.17
2023-05-18T14:31:46.918Z,101007.36
2023-05-18T14:34:15.873Z,101006.41
2023-05-18T14:36:44.799Z,101007.66
2023-05-18T14:39:13.723Z,101007.58
2023-05-18T14:41:42.525Z,101011.30
2023-05-18T14:44:11.512Z,101014.80
2023-05-18T14:46:41.391Z,101013.73
2023-05-18T14:49:10.173Z,101015.35
2023-05-18T14:51:39.011Z,101010.06
2023-05-18T14:54:07.843Z,101004.16
2023-05-18T14:56:36.725Z,101003.30
2023-05-18T14:59:05.661Z,100996.66
2023-05-18T15:01:34.392Z,100997.77
2023-05-18T15:04:03.373Z,100995.17
2023-05-18T15:06:33.490Z,100997.04
2023-05-18T15:09:02.162Z,100998.04
2023-05-18T15:11:30.799Z,100997.45
2023-05-18T15:13:59.544Z,100994.74
2023-05-18T15:16:28.424Z,100992.73
2023-05-18T15:18:57.233Z,100992.26
2023-05-18T15:21:25.996Z,100994.59
2023-05-18T15:23:54.651Z,100997.33
2023-05-18T15:26:23.384Z,101002.61
2023-05-18T15:28:52.117Z,101004.13
2023-05-18T15:31:20.932Z,101003.77
2023-05-18T15:33:49.715Z,101005.27
2023-05-18T15:36:18.679Z,101006.82
2023-05-18T15:38:47.593Z,101011.92
2023-05-18T15:41:16.353Z,101011.47
2023-05-18T15:43:46.856Z,101013.70
2023-05-18T15:46:15.847Z,101015.18
2023-05-18T15:48:44.769Z,101013.55
2023-05-18T15:51:13.938Z,101017.15
2023-05-18T15:53:43.429Z,101017.55
2023-05-18T15:56:12.486Z,101020.32
2023-05-18T15:58:41.581Z,101018.01
2023-05-18T16:01:10.546Z,101021.00
2023-05-18T16:03:39.527Z,101026.42
2023-05-18T16:06:08.632Z,101029.00
2023-05-18T16:08:37.668Z,101029.23
2023-05-18T16:11:07.275Z,101033.48
2023-05-18T16:13:36.231Z,101032.73
2023-05-18T16:16:06.783Z,101030.42
2023-05-18T16:18:35.628Z,101031.41
2023-05-18T16:21:04.591Z,101036.38
2023-05-18T16:23:33.325Z,101037.00
2023-05-18T16:26:05.448Z,101035.38
2023-05-18T16:28:34.741Z,101037.50
2023-05-18T16:31:08.172Z,101039.77
2023-05-18T16:33:38.306Z,101042.27
2023-05-18T16:36:07.849Z,101045.49
2023-05-18T16:38:37.759Z,101048.90
2023-05-18T16:41:07.057Z,101048.70
2023-05-18T16:43:36.149Z,101049.38
2023-05-18T16:46:05.186Z,101051.44
2023-05-18T16:48:34.003Z,101052.37
2023-05-18T16:51:06.881Z,101054.61
2023-05-18T16:53:36.467Z,101055.41
2023-05-18T16:56:05.644Z,101054.42
2023-05-18T16:58:34.326Z,101054.84
2023-05-18T17:01:04.299Z,101060.84
2023-05-18T17:03:38.673Z,101060.34
2023-05-18T17:06:08.695Z,101060.21
2023-05-18T17:08:37.588Z,101061.42
2023-05-18T17:11:06.321Z,101063.61
2023-05-18T17:13:35.097Z,101062.82
2023-05-18T17:16:04.813Z,101064.95
2023-05-18T17:18:33.586Z,101067.20
2023-05-18T17:21:02.610Z,101066.80
2023-05-18T17:23:31.945Z,101066.30
2023-05-18T17:26:05.906Z,101069.51
2023-05-18T17:28:35.218Z,101071.85
2023-05-18T17:31:04.258Z,101073.21
2023-05-18T17:33:33.036Z,101078.70
2023-05-18T17:36:01.822Z,101080.83
2023-05-18T17:38:31.022Z,101077.64
2023-05-18T17:40:59.737Z,101081.70
2023-05-18T17:43:28.520Z,101079.55
2023-05-18T17:45:57.307Z,101086.19
2023-05-18T17:48:26.064Z,101085.83
2023-05-18T17:50:54.853Z,101088.06
2023-05-18T17:53:23.630Z,101092.30
2023-05-18T17:55:53.122Z,101090.06
2023-05-18T17:58:21.989Z,101093.06
2023-05-18T18:00:50.746Z,101095.27
2023-05-18T18:03:21.117Z,101102.06
2023-05-18T18:05:49.979Z,101105.66
2023-05-18T18:08:18.778Z,101104.34
2023-05-18T18:10:47.570Z,101110.27
2023-05-18T18:13:16.302Z,101111.70
2023-05-18T18:15:45.168Z,101116.39
2023-05-18T18:18:14.076Z,101120.79
2023-05-18T18:20:43.123Z,101121.66
2023-05-18T18:23:11.979Z,101123.95
2023-05-18T18:25:40.852Z,101127.02
2023-05-18T18:28:14.704Z,101129.56
2023-05-18T18:30:44.857Z,101131.60
2023-05-18T18:33:14.781Z,101137.65
2023-05-18T18:35:43.881Z,101138.83
2023-05-18T18:38:15.734Z,101140.52
2023-05-18T18:40:44.653Z,101152.27
2023-05-18T18:43:13.702Z,101156.33
2023-05-18T18:45:42.530Z,101165.03
2023-05-18T18:48:11.426Z,101167.39
2023-05-18T18:50:40.257Z,101170.58
2023-05-18T18:53:08.979Z,101174.45
2023-05-18T18:55:37.738Z,101172.98
2023-05-18T18:58:06.466Z,101180.30
2023-05-18T19:00:35.310Z,101180.09
2023-05-18T19:03:04.374Z,101181.61
2023-05-18T19:05:33.510Z,101185.64
2023-05-18T19:08:02.658Z,101183.18
2023-05-18T19:10:33.077Z,101188.31
2023-05-18T19:13:05.831Z,101197.53
2023-05-18T19:15:35.367Z,101197.14
2023-05-18T19:18:04.761Z,101196.96
2023-05-18T19:20:34.233Z,101187.52
2023-05-18T19:23:04.911Z,101192.23
2023-05-18T19:25:33.873Z,101199.48
2023-05-18T19:28:02.829Z,101198.46
2023-05-18T19:30:31.507Z,101206.27
2023-05-18T19:33:00.684Z,101211.27
2023-05-18T19:35:31.504Z,101213.92
2023-05-18T19:38:02.506Z,101209.73
2023-05-18T19:40:31.387Z,101217.98
2023-05-18T19:43:01.742Z,101209.81
2023-05-18T19:45:30.990Z,101220.51
2023-05-18T19:48:00.231Z,101221.95
2023-05-18T19:50:29.041Z,101219.02
2023-05-18T19:52:57.745Z,101213.32
2023-05-18T19:55:26.598Z,101227.58
2023-05-18T19:57:55.347Z,101229.25
2023-05-18T20:00:25.736Z,101234.92
2023-05-18T20:02:54.602Z,101232.48
2023-05-18T20:05:25.664Z,101236.80
2023-05-18T20:07:54.496Z,101240.98
2023-05-18T20:10:23.235Z,101237.98
2023-05-18T20:12:52.360Z,101238.35
2023-05-18T20:15:21.265Z,101242.45
2023-05-18T20:17:50.128Z,101245.02
2023-05-18T20:20:20.574Z,101246.48
2023-05-18T20:22:49.618Z,101253.84
2023-05-18T20:25:19.456Z,101257.05
2023-05-18T20:27:48.938Z,101258.66
2023-05-18T20:30:19.106Z,101257.09
2023-05-18T20:32:48.508Z,101264.31
2023-05-18T20:35:17.587Z,101268.02
2023-05-18T20:37:46.962Z,101273.39
2023-05-18T20:40:15.699Z,101284.65
2023-05-18T20:42:44.450Z,101299.05
2023-05-18T20:45:14.021Z,101322.35
2023-05-18T20:47:42.970Z,101325.10
2023-05-18T20:50:12.229Z,101326.05
2023-05-18T20:52:41.245Z,101328.92
2023-05-18T20:55:10.544Z,101335.77
2023-05-18T20:57:40.278Z,101347.90
2023-05-18T21:00:10.447Z,101356.20
2023-05-18T21:02:48.735Z,101357.70
2023-05-18T21:05:18.960Z,101361.77
2023-05-18T21:07:48.950Z,101374.91
2023-05-18T21:10:17.766Z,101388.24
2023-05-18T21:12:46.495Z,101410.20
2023-05-18T21:15:15.221Z,101416.99
2023-05-18T21:17:44.040Z,101424.04
2023-05-18T21:20:13.024Z,101421.92
2023-05-18T21:22:41.734Z,101416.45
2023-05-18T21:25:10.738Z,101399.23
2023-05-18T21:27:40.193Z,101401.55
2023-05-18T21:30:10.006Z,101402.52
2023-05-18T21:32:38.834Z,101406.06
2023-05-18T21:35:07.934Z,101409.28
2023-05-18T21:37:37.591Z,101400.86
2023-05-18T21:40:19.563Z,101400.08
2023-05-18T21:42:48.485Z,101411.51
2023-05-18T21:45:18.450Z,101403.06
2023-05-18T21:47:49.312Z,101403.73
2023-05-18T21:50:18.467Z,101401.91
2023-05-18T21:52:47.364Z,101412.23
2023-05-18T21:55:16.115Z,101413.95
2023-05-18T21:57:44.900Z,101405.15
2023-05-18T22:00:16.871Z,101391.60
2023-05-18T22:02:45.501Z,101385.16
2023-05-18T22:05:14.252Z,101396.67
2023-05-18T22:07:43.071Z,101399.50
2023-05-18T22:10:12.005Z,101409.52
2023-05-18T22:12:43.674Z,101423.98
2023-05-18T22:15:12.924Z,101422.93
2023-05-18T22:17:41.734Z,101400.90
2023-05-18T22:20:11.683Z,101383.85
2023-05-18T22:22:41.354Z,101377.43
2023-05-18T22:25:10.353Z,101372.48
2023-05-18T22:27:39.261Z,101363.89
2023-05-18T22:30:09.297Z,101361.17
2023-05-18T22:32:38.782Z,101379.11
2023-05-18T22:35:08.927Z,101398.17
2023-05-18T22:37:37.901Z,101406.57
2023-05-18T22:40:08.126Z,101409.16
2023-05-18T22:42:36.912Z,101409.05
2023-05-18T22:45:06.350Z,101407.00
2023-05-18T22:47:35.369Z,101405.19
2023-05-18T22:50:04.307Z,101402.12
2023-05-18T22:52:35.210Z,101400.58
2023-05-18T22:55:05.818Z,101396.80
2023-05-18T22:57:34.538Z,101397.66
2023-05-18T23:00:03.712Z,101403.41
2023-05-18T23:02:32.522Z,101413.34
2023-05-18T23:05:02.050Z,101413.34
2023-05-18T23:07:36.370Z,101417.77
2023-05-18T23:10:11.400Z,101418.12
2023-05-18T23:12:40.497Z,101415.81
2023-05-18T23:15:10.899Z,101407.96
2023-05-18T23:17:39.751Z,101410.09
2023-05-18T23:20:10.608Z,101412.02
2023-05-18T23:23:35.325Z,101414.02
2023-05-18T23:26:22.894Z,101408.33
2023-05-18T23:29:10.988Z,101406.14
2023-05-18T23:31:39.927Z,101407.54
2023-05-18T23:34:09.070Z,101405.66
2023-05-18T23:36:39.092Z,101408.30
2023-05-18T23:39:08.339Z,101408.48
2023-05-18T23:41:37.968Z,101405.60
2023-05-18T23:44:07.623Z,101407.45
2023-05-18T23:46:37.219Z,101403.36
2023-05-18T23:49:06.627Z,101401.02
2023-05-18T23:51:36.843Z,101412.71
2023-05-18T23:54:07.544Z,101414.53
2023-05-18T23:56:36.937Z,101422.17
2023-05-18T23:59:06.996Z,101426.42
